createdAt,value
2018-03-06T00:00:00.553Z,34.90
2018-03-06T00:01:00.525Z,36.50
2018-03-06T00:02:00.485Z,36.00
2018-03-06T00:03:00.453Z,35.00
2018-03-06T00:04:00.433Z,35.80
2018-03-06T00:05:00.396Z,36.70
2018-03-06T00:06:00.362Z,37.70
2018-03-06T00:07:00.582Z,38.20
2018-03-06T00:08:00.300Z,37.70
2018-03-06T00:09:00.271Z,37.80
2018-03-06T00:10:00.280Z,37.30
2018-03-06T00:11:00.210Z,38.70
2018-03-06T00:12:00.180Z,38.20
2018-03-06T00:13:00.149Z,38.40
2018-03-06T00:14:00.120Z,36.50
2018-03-06T00:15:00.083Z,37.80
2018-03-06T00:16:00.050Z,37.20
2018-03-06T00:17:00.023Z,37.80
2018-03-06T00:17:59.987Z,38.70
2018-03-06T00:19:00.208Z,36.70
2018-03-06T00:19:59.928Z,36.50
2018-03-06T00:20:59.899Z,37.10
2018-03-06T00:21:59.859Z,37.60
2018-03-06T00:22:59.834Z,36.30
2018-03-06T00:23:59.795Z,39.40
2018-03-06T00:24:59.772Z,39.20
2018-03-06T00:25:59.740Z,38.10
2018-03-06T00:26:59.706Z,37.30
2018-03-06T00:27:59.684Z,37.50
2018-03-06T00:28:59.642Z,37.20
2018-03-06T00:29:59.616Z,38.90
2018-03-06T00:30:59.882Z,36.90
2018-03-06T00:31:59.555Z,38.10
2018-03-06T00:32:59.523Z,37.40
2018-03-06T00:33:59.486Z,39.40
2018-03-06T00:34:59.456Z,37.70
2018-03-06T00:35:59.423Z,37.80
2018-03-06T00:36:59.430Z,36.50
2018-03-06T00:37:59.390Z,38.90
2018-03-06T00:38:59.329Z,36.70
2018-03-06T00:39:59.327Z,38.30
2018-03-06T00:40:59.266Z,37.70
2018-03-06T00:41:59.240Z,37.10
2018-03-06T00:42:59.210Z,37.70
2018-03-06T00:43:59.175Z,36.50
2018-03-06T00:44:59.146Z,36.60
2018-03-06T00:45:59.115Z,36.90
2018-03-06T00:46:59.087Z,36.80
2018-03-06T00:47:59.052Z,36.10
2018-03-06T00:48:59.018Z,37.00
2018-03-06T00:49:58.984Z,37.90
2018-03-06T00:50:58.962Z,40.20
2018-03-06T00:51:58.922Z,38.80
2018-03-06T00:52:58.896Z,38.30
2018-03-06T00:53:58.856Z,38.70
2018-03-06T00:54:58.833Z,40.40
2018-03-06T00:55:58.798Z,39.40
2018-03-06T00:56:58.767Z,40.40
2018-03-06T00:57:58.742Z,42.40
2018-03-06T00:58:58.704Z,40.90
2018-03-06T00:59:58.976Z,41.40
2018-03-06T01:00:58.639Z,40.50
2018-03-06T01:01:58.610Z,42.60
2018-03-06T01:02:58.581Z,42.10
2018-03-06T01:03:58.554Z,42.20
2018-03-06T01:04:58.817Z,43.20
2018-03-06T01:05:58.479Z,41.70
2018-03-06T01:06:58.450Z,42.60
2018-03-06T01:07:58.420Z,44.00
2018-03-06T01:08:58.389Z,43.20
2018-03-06T01:09:58.357Z,42.90
2018-03-06T01:10:58.324Z,43.30
2018-03-06T01:11:58.292Z,43.20
2018-03-06T01:12:58.261Z,44.40
2018-03-06T01:13:58.233Z,43.80
2018-03-06T01:14:58.199Z,42.50
2018-03-06T01:15:58.165Z,43.10
2018-03-06T01:16:58.134Z,40.60
2018-03-06T01:17:58.108Z,42.10
2018-03-06T01:18:58.070Z,40.90
2018-03-06T01:19:58.050Z,41.60
2018-03-06T01:20:58.012Z,43.50
2018-03-06T01:21:57.983Z,41.90
2018-03-06T01:22:58.196Z,43.30
2018-03-06T01:23:57.914Z,42.20
2018-03-06T01:24:57.885Z,42.90
2018-03-06T01:25:57.847Z,42.70
2018-03-06T01:26:57.817Z,43.30
2018-03-06T01:27:57.791Z,43.80
2018-03-06T01:28:57.754Z,42.60
2018-03-06T01:29:57.728Z,43.60
2018-03-06T01:30:57.693Z,43.20
2018-03-06T01:31:57.663Z,44.60
2018-03-06T01:32:57.634Z,41.50
2018-03-06T01:33:57.600Z,41.10
2018-03-06T01:34:57.566Z,43.60
2018-03-06T01:35:57.536Z,43.40
2018-03-06T01:36:57.504Z,42.70
2018-03-06T01:37:57.470Z,42.90
2018-03-06T01:38:57.434Z,42.80
2018-03-06T01:39:57.411Z,41.10
2018-03-06T01:40:57.383Z,42.50
2018-03-06T01:41:57.347Z,43.00
2018-03-06T01:42:57.311Z,41.20
2018-03-06T01:43:57.306Z,40.70
2018-03-06T01:44:57.248Z,41.10
2018-03-06T01:45:57.516Z,40.70
2018-03-06T01:46:57.187Z,42.80
2018-03-06T01:47:57.166Z,42.90
2018-03-06T01:48:57.125Z,40.50
2018-03-06T01:49:57.090Z,43.20
2018-03-06T01:50:57.052Z,43.60
2018-03-06T01:51:57.024Z,43.50
2018-03-06T01:52:56.997Z,43.30
2018-03-06T01:53:56.965Z,43.20
2018-03-06T01:54:56.936Z,42.80
2018-03-06T01:55:56.898Z,42.60
2018-03-06T01:56:56.864Z,42.80
2018-03-06T01:57:57.087Z,41.90
2018-03-06T01:58:56.808Z,43.60
2018-03-06T01:59:56.812Z,42.50
2018-03-06T02:00:56.745Z,42.30
2018-03-06T02:01:56.715Z,43.70
2018-03-06T02:02:56.679Z,43.80
2018-03-06T02:03:56.652Z,43.70
2018-03-06T02:04:56.624Z,45.00
2018-03-06T02:05:56.578Z,46.10
2018-03-06T02:06:56.547Z,44.90
2018-03-06T02:07:56.521Z,44.70
2018-03-06T02:08:56.486Z,47.00
2018-03-06T02:09:56.455Z,47.50
2018-03-06T02:10:56.431Z,46.80
2018-03-06T02:11:56.386Z,43.20
2018-03-06T02:12:56.361Z,45.10
2018-03-06T02:13:56.333Z,45.40
2018-03-06T02:14:56.299Z,43.30
2018-03-06T02:15:56.263Z,45.30
2018-03-06T02:16:56.237Z,44.30
2018-03-06T02:17:56.195Z,46.00
2018-03-06T02:18:56.168Z,45.50
2018-03-06T02:19:56.133Z,47.20
2018-03-06T02:20:56.102Z,47.70
2018-03-06T02:21:56.369Z,46.80
2018-03-06T02:22:56.033Z,46.00
2018-03-06T02:23:56.004Z,47.10
2018-03-06T02:24:55.975Z,46.40
2018-03-06T02:25:55.944Z,47.90
2018-03-06T02:26:55.912Z,49.30
2018-03-06T02:27:55.874Z,47.40
2018-03-06T02:28:55.845Z,47.90
2018-03-06T02:29:55.819Z,47.60
2018-03-06T02:30:55.783Z,48.80
2018-03-06T02:31:55.752Z,49.10
2018-03-06T02:32:55.724Z,50.70
2018-03-06T02:33:55.693Z,49.30
2018-03-06T02:34:55.654Z,50.30
2018-03-06T02:35:55.624Z,48.10
2018-03-06T02:36:55.593Z,46.90
2018-03-06T02:37:55.553Z,47.30
2018-03-06T02:38:55.524Z,48.20
2018-03-06T02:39:55.497Z,49.50
2018-03-06T02:40:55.457Z,49.30
2018-03-06T02:41:55.430Z,49.70
2018-03-06T02:42:55.395Z,49.30
2018-03-06T02:43:55.365Z,48.20
2018-03-06T02:44:55.581Z,47.50
2018-03-06T02:45:55.303Z,48.30
2018-03-06T02:46:55.273Z,47.20
2018-03-06T02:47:55.237Z,48.00
2018-03-06T02:48:55.216Z,47.90
2018-03-06T02:49:55.172Z,48.40
2018-03-06T02:50:55.140Z,47.20
2018-03-06T02:51:55.112Z,47.20
2018-03-06T02:52:55.078Z,48.20
2018-03-06T02:53:55.043Z,47.30
2018-03-06T02:54:55.012Z,45.50
2018-03-06T02:55:54.975Z,47.50
2018-03-06T02:56:55.194Z,47.40
2018-03-06T02:57:54.918Z,48.60
2018-03-06T02:58:54.885Z,50.00
2018-03-06T02:59:54.847Z,50.00
2018-03-06T03:00:54.823Z,48.40
2018-03-06T03:01:54.791Z,47.80
2018-03-06T03:02:54.757Z,50.60
2018-03-06T03:03:54.730Z,51.10
2018-03-06T03:04:54.689Z,50.60
2018-03-06T03:05:54.654Z,49.60
2018-03-06T03:06:54.633Z,50.40
2018-03-06T03:07:54.593Z,50.80
2018-03-06T03:08:54.567Z,47.90
2018-03-06T03:09:54.527Z,46.20
2018-03-06T03:10:54.502Z,48.70
2018-03-06T03:11:54.464Z,48.50
2018-03-06T03:12:54.733Z,48.30
2018-03-06T03:13:54.402Z,50.80
2018-03-06T03:14:54.372Z,50.10
2018-03-06T03:15:54.344Z,49.40
2018-03-06T03:16:54.300Z,48.40
2018-03-06T03:17:54.275Z,48.40
2018-03-06T03:18:54.243Z,48.40
2018-03-06T03:19:54.211Z,49.20
2018-03-06T03:20:54.188Z,48.80
2018-03-06T03:21:54.142Z,51.90
2018-03-06T03:22:54.112Z,53.30
2018-03-06T03:23:54.083Z,54.40
2018-03-06T03:24:54.057Z,54.10
2018-03-06T03:25:54.018Z,51.70
2018-03-06T03:26:53.981Z,50.70
2018-03-06T03:27:53.949Z,52.80
2018-03-06T03:28:53.921Z,56.20
2018-03-06T03:29:54.188Z,53.00
2018-03-06T03:30:53.858Z,57.00
2018-03-06T03:31:53.827Z,54.80
2018-03-06T03:32:53.791Z,55.10
2018-03-06T03:33:53.767Z,56.50
2018-03-06T03:34:53.736Z,53.90
2018-03-06T03:35:53.697Z,54.20
2018-03-06T03:36:53.677Z,57.30
2018-03-06T03:37:53.626Z,57.70
2018-03-06T03:38:53.602Z,54.50
2018-03-06T03:39:53.570Z,55.80
2018-03-06T03:40:53.535Z,53.00
2018-03-06T03:41:53.502Z,54.60
2018-03-06T03:42:53.470Z,51.80
2018-03-06T03:43:53.432Z,55.30
2018-03-06T03:44:53.401Z,54.80
2018-03-06T03:45:53.379Z,55.50
2018-03-06T03:46:53.346Z,53.90
2018-03-06T03:47:53.608Z,55.10
2018-03-06T03:48:53.277Z,53.20
2018-03-06T03:49:53.248Z,54.50
2018-03-06T03:50:53.216Z,54.30
2018-03-06T03:51:53.181Z,52.20
2018-03-06T03:52:53.147Z,53.70
2018-03-06T03:53:53.112Z,52.00
2018-03-06T03:54:53.079Z,56.50
2018-03-06T03:55:53.047Z,57.60
2018-03-06T03:56:53.017Z,57.70
2018-03-06T03:57:52.988Z,55.50
2018-03-06T03:58:52.956Z,56.20
2018-03-06T03:59:52.922Z,54.80
2018-03-06T04:00:52.893Z,54.60
2018-03-06T04:01:52.854Z,55.50
2018-03-06T04:02:52.821Z,56.70
2018-03-06T04:03:52.794Z,57.50
2018-03-06T04:04:52.761Z,56.60
2018-03-06T04:05:52.985Z,57.60
2018-03-06T04:06:52.695Z,58.70
2018-03-06T04:07:52.667Z,59.40
2018-03-06T04:08:52.623Z,59.00
2018-03-06T04:09:52.593Z,58.30
2018-03-06T04:10:52.570Z,57.90
2018-03-06T04:11:52.531Z,61.40
2018-03-06T04:12:52.493Z,63.10
2018-03-06T04:13:52.464Z,63.60
2018-03-06T04:14:52.431Z,65.70
2018-03-06T04:15:52.402Z,63.50
2018-03-06T04:16:52.376Z,65.70
2018-03-06T04:17:52.335Z,65.00
2018-03-06T04:18:52.299Z,65.20
2018-03-06T04:19:52.269Z,62.10
2018-03-06T04:20:52.236Z,67.20
2018-03-06T04:21:52.209Z,64.90
2018-03-06T04:22:52.176Z,65.50
2018-03-06T04:23:52.150Z,64.50
2018-03-06T04:24:52.108Z,62.90
2018-03-06T04:25:52.086Z,67.30
2018-03-06T04:26:52.051Z,66.20
2018-03-06T04:27:52.006Z,65.80
2018-03-06T04:28:51.974Z,62.70
2018-03-06T04:29:52.247Z,63.80
2018-03-06T04:30:51.922Z,64.60
2018-03-06T04:31:51.876Z,66.50
2018-03-06T04:32:51.848Z,65.30
2018-03-06T04:33:51.813Z,64.80
2018-03-06T04:34:51.780Z,64.00
2018-03-06T04:35:52.047Z,61.50
2018-03-06T04:36:51.719Z,63.10
2018-03-06T04:37:51.682Z,62.00
2018-03-06T04:38:51.649Z,62.40
2018-03-06T04:39:51.612Z,63.40
2018-03-06T04:40:51.584Z,63.90
2018-03-06T04:41:51.563Z,66.20
2018-03-06T04:42:51.526Z,65.40
2018-03-06T04:43:51.487Z,66.00
2018-03-06T04:44:51.451Z,67.10
2018-03-06T04:45:51.420Z,68.60
2018-03-06T04:46:51.392Z,68.50
2018-03-06T04:47:51.657Z,67.20
2018-03-06T04:48:51.327Z,67.60
2018-03-06T04:49:51.288Z,68.60
2018-03-06T04:50:51.267Z,67.80
2018-03-06T04:51:51.221Z,70.50
2018-03-06T04:52:51.197Z,68.40
2018-03-06T04:53:51.152Z,69.50
2018-03-06T04:54:51.120Z,69.10
2018-03-06T04:55:51.093Z,67.20
2018-03-06T04:56:51.057Z,67.90
2018-03-06T04:57:51.031Z,67.80
2018-03-06T04:58:51.003Z,68.40
2018-03-06T04:59:50.955Z,68.10
2018-03-06T05:00:50.926Z,69.90
2018-03-06T05:01:50.892Z,68.30
2018-03-06T05:02:50.865Z,66.70
2018-03-06T05:03:50.834Z,69.20
2018-03-06T05:04:50.796Z,71.60
2018-03-06T05:05:51.063Z,72.70
2018-03-06T05:06:50.725Z,71.60
2018-03-06T05:07:50.697Z,72.90
2018-03-06T05:08:50.668Z,75.10
2018-03-06T05:09:50.624Z,75.60
2018-03-06T05:10:50.594Z,74.10
2018-03-06T05:11:50.570Z,75.20
2018-03-06T05:12:50.529Z,73.70
2018-03-06T05:13:50.505Z,75.80
2018-03-06T05:14:50.466Z,75.50
2018-03-06T05:15:50.427Z,76.10
2018-03-06T05:16:50.649Z,75.80
2018-03-06T05:17:50.365Z,78.30
2018-03-06T05:18:50.343Z,79.10
2018-03-06T05:19:50.298Z,78.30
2018-03-06T05:20:50.267Z,77.80
2018-03-06T05:21:50.232Z,79.70
2018-03-06T05:22:50.202Z,81.80
2018-03-06T05:23:50.174Z,79.60
2018-03-06T05:24:50.142Z,79.40
2018-03-06T05:25:50.098Z,80.60
2018-03-06T05:26:50.104Z,80.20
2018-03-06T05:27:50.028Z,83.80
2018-03-06T05:28:50.000Z,81.70
2018-03-06T05:29:49.965Z,82.50
2018-03-06T05:30:49.934Z,83.80
2018-03-06T05:31:49.898Z,84.70
2018-03-06T05:32:49.862Z,82.20
2018-03-06T05:33:49.836Z,85.30
2018-03-06T05:34:49.805Z,83.50
2018-03-06T05:35:49.767Z,85.20
2018-03-06T05:36:49.738Z,89.10
2018-03-06T05:37:49.701Z,86.40
2018-03-06T05:38:49.667Z,87.30
2018-03-06T05:39:49.634Z,87.00
2018-03-06T05:40:49.612Z,88.00
2018-03-06T05:41:49.566Z,87.50
2018-03-06T05:42:49.533Z,87.10
2018-03-06T05:43:49.503Z,87.30
2018-03-06T05:44:49.464Z,87.70
2018-03-06T05:45:49.434Z,83.10
2018-03-06T05:46:49.756Z,86.50
2018-03-06T05:47:49.370Z,84.60
2018-03-06T05:48:49.343Z,83.30
2018-03-06T05:49:49.304Z,84.90
2018-03-06T05:50:49.271Z,84.50
2018-03-06T05:51:49.236Z,81.10
2018-03-06T05:52:49.200Z,84.70
2018-03-06T05:53:49.163Z,84.80
2018-03-06T05:54:49.138Z,83.00
2018-03-06T05:55:49.112Z,80.70
2018-03-06T05:56:49.078Z,78.30
2018-03-06T05:57:49.036Z,82.20
2018-03-06T05:58:49.255Z,79.60
2018-03-06T05:59:48.971Z,81.30
2018-03-06T06:00:48.942Z,81.20
2018-03-06T06:01:48.905Z,79.30
2018-03-06T06:02:48.867Z,84.30
2018-03-06T06:03:48.833Z,82.70
2018-03-06T06:04:48.806Z,86.30
2018-03-06T06:05:48.773Z,85.30
2018-03-06T06:06:48.742Z,84.20
2018-03-06T06:07:48.707Z,81.50
2018-03-06T06:08:48.971Z,83.90
2018-03-06T06:09:48.640Z,80.00
2018-03-06T06:10:48.598Z,82.90
2018-03-06T06:11:48.573Z,82.60
2018-03-06T06:12:48.538Z,81.10
2018-03-06T06:13:48.504Z,80.20
2018-03-06T06:14:48.468Z,79.60
2018-03-06T06:15:48.431Z,81.00
2018-03-06T06:16:48.402Z,80.30
2018-03-06T06:17:48.373Z,80.90
2018-03-06T06:18:48.350Z,84.10
2018-03-06T06:19:48.300Z,79.50
2018-03-06T06:20:48.269Z,80.90
2018-03-06T06:21:48.244Z,79.40
2018-03-06T06:22:48.207Z,81.50
2018-03-06T06:23:48.180Z,82.00
2018-03-06T06:24:48.150Z,81.00
2018-03-06T06:25:48.106Z,78.10
2018-03-06T06:26:48.069Z,74.80
2018-03-06T06:27:48.050Z,76.30
2018-03-06T06:28:48.011Z,75.40
2018-03-06T06:29:47.976Z,76.60
2018-03-06T06:30:47.938Z,74.50
2018-03-06T06:31:47.908Z,73.30
2018-03-06T06:32:47.883Z,70.90
2018-03-06T06:33:47.845Z,67.80
2018-03-06T06:34:47.815Z,68.60
2018-03-06T06:35:47.781Z,68.30
2018-03-06T06:36:47.744Z,69.10
2018-03-06T06:37:47.720Z,71.20
2018-03-06T06:38:47.686Z,67.40
2018-03-06T06:39:47.654Z,66.50
2018-03-06T06:40:47.621Z,68.00
2018-03-06T06:41:47.580Z,64.40
2018-03-06T06:42:47.598Z,60.90
2018-03-06T06:43:47.528Z,62.00
2018-03-06T06:44:47.504Z,61.10
2018-03-06T06:45:47.463Z,61.90
2018-03-06T06:46:47.456Z,59.00
2018-03-06T06:47:47.392Z,61.50
2018-03-06T06:48:47.361Z,60.60
2018-03-06T06:49:47.342Z,58.90
2018-03-06T06:50:47.604Z,60.00
2018-03-06T06:51:47.270Z,58.50
2018-03-06T06:52:47.231Z,60.60
2018-03-06T06:53:47.216Z,58.00
2018-03-06T06:54:47.172Z,57.80
2018-03-06T06:55:47.152Z,57.70
2018-03-06T06:56:47.117Z,56.90
2018-03-06T06:57:47.080Z,58.70
2018-03-06T06:58:47.050Z,59.30
2018-03-06T06:59:47.018Z,57.50
2018-03-06T07:00:47.000Z,57.90
2018-03-06T07:01:46.958Z,58.30
2018-03-06T07:02:46.931Z,54.80
2018-03-06T07:03:46.896Z,56.50
2018-03-06T07:04:46.870Z,55.90
2018-03-06T07:05:46.840Z,56.00
2018-03-06T07:06:46.813Z,55.40
2018-03-06T07:07:46.777Z,56.40
2018-03-06T07:08:46.743Z,55.40
2018-03-06T07:09:46.719Z,55.40
2018-03-06T07:10:46.702Z,54.10
2018-03-06T07:11:46.659Z,55.20
2018-03-06T07:12:46.632Z,54.20
2018-03-06T07:13:46.594Z,53.90
2018-03-06T07:14:46.576Z,52.80
2018-03-06T07:15:46.554Z,54.90
2018-03-06T07:16:46.509Z,54.70
2018-03-06T07:17:46.478Z,52.90
2018-03-06T07:18:46.448Z,52.00
2018-03-06T07:19:46.720Z,54.10
2018-03-06T07:20:46.462Z,53.30
2018-03-06T07:21:46.366Z,52.20
2018-03-06T07:22:46.337Z,53.40
2018-03-06T07:23:46.348Z,52.40
2018-03-06T07:24:46.277Z,51.40
2018-03-06T07:25:46.253Z,51.30
2018-03-06T07:26:46.222Z,53.00
2018-03-06T07:27:46.193Z,52.90
2018-03-06T07:28:46.160Z,52.30
2018-03-06T07:29:46.132Z,51.70
2018-03-06T07:30:46.103Z,50.00
2018-03-06T07:31:46.080Z,51.80
2018-03-06T07:32:46.049Z,50.60
2018-03-06T07:33:46.019Z,49.70
2018-03-06T07:34:45.988Z,50.00
2018-03-06T07:35:45.957Z,49.20
2018-03-06T07:36:45.933Z,50.70
2018-03-06T07:37:45.906Z,50.10
2018-03-06T07:38:45.889Z,50.40
2018-03-06T07:39:45.854Z,49.90
2018-03-06T07:40:45.817Z,50.40
2018-03-06T07:41:45.800Z,51.10
2018-03-06T07:42:45.771Z,49.90
2018-03-06T07:43:46.042Z,50.30
2018-03-06T07:44:45.713Z,49.70
2018-03-06T07:45:45.686Z,50.20
2018-03-06T07:46:45.658Z,50.20
2018-03-06T07:47:45.629Z,50.30
2018-03-06T07:48:45.960Z,50.80
2018-03-06T07:49:45.575Z,50.20
2018-03-06T07:50:45.545Z,49.90
2018-03-06T07:51:45.522Z,50.10
2018-03-06T07:52:45.495Z,49.90
2018-03-06T07:53:45.477Z,50.20
2018-03-06T07:54:45.443Z,49.40
2018-03-06T07:55:45.409Z,49.60
2018-03-06T07:56:45.390Z,49.40
2018-03-06T07:57:45.361Z,49.00
2018-03-06T07:58:45.342Z,52.40
2018-03-06T07:59:45.308Z,49.50
2018-03-06T08:00:45.284Z,49.30
2018-03-06T08:01:45.250Z,50.80
2018-03-06T08:02:45.223Z,48.90
2018-03-06T08:03:45.200Z,48.80
2018-03-06T08:04:45.174Z,49.10
2018-03-06T08:05:45.146Z,51.10
2018-03-06T08:06:45.118Z,49.80
2018-03-06T08:07:45.100Z,48.60
2018-03-06T08:08:45.064Z,49.20
2018-03-06T08:09:45.046Z,49.10
2018-03-06T08:10:45.021Z,50.90
2018-03-06T08:11:44.990Z,49.80
2018-03-06T08:12:45.268Z,46.90
2018-03-06T08:13:44.929Z,49.40
2018-03-06T08:14:44.937Z,49.70
2018-03-06T08:15:44.881Z,48.60
2018-03-06T08:16:44.853Z,48.20
2018-03-06T08:17:44.827Z,50.70
2018-03-06T08:18:44.806Z,48.00
2018-03-06T08:19:44.770Z,49.30
2018-03-06T08:20:44.752Z,49.90
2018-03-06T08:21:44.733Z,48.20
2018-03-06T08:22:44.705Z,49.90
2018-03-06T08:23:44.670Z,50.80
2018-03-06T08:24:44.653Z,50.50
2018-03-06T08:25:44.616Z,50.10
2018-03-06T08:26:44.592Z,48.80
2018-03-06T08:27:44.570Z,48.40
2018-03-06T08:28:44.543Z,47.80
2018-03-06T08:29:44.824Z,48.10
2018-03-06T08:30:44.489Z,48.80
2018-03-06T08:31:44.462Z,48.70
2018-03-06T08:32:44.439Z,48.10
2018-03-06T08:33:44.411Z,48.60
2018-03-06T08:34:44.381Z,50.00
2018-03-06T08:35:44.355Z,51.10
2018-03-06T08:36:44.335Z,50.40
2018-03-06T08:37:44.307Z,50.60
2018-03-06T08:38:44.288Z,50.50
2018-03-06T08:39:44.262Z,50.10
2018-03-06T08:40:44.235Z,47.60
2018-03-06T08:41:44.201Z,49.70
2018-03-06T08:42:44.176Z,49.40
2018-03-06T08:43:44.162Z,49.50
2018-03-06T08:44:44.130Z,50.20
2018-03-06T08:45:44.107Z,48.60
2018-03-06T08:46:44.078Z,49.20
2018-03-06T08:47:44.051Z,48.20
2018-03-06T08:48:44.036Z,51.40
2018-03-06T08:49:44.001Z,49.60
2018-03-06T08:50:43.979Z,49.50
2018-03-06T08:51:43.944Z,49.00
2018-03-06T08:52:43.925Z,49.50
2018-03-06T08:53:43.904Z,49.60
2018-03-06T08:54:43.873Z,49.10
2018-03-06T08:55:43.847Z,47.50
2018-03-06T08:56:43.823Z,49.80
2018-03-06T08:57:43.827Z,51.20
2018-03-06T08:58:43.777Z,48.00
2018-03-06T08:59:43.747Z,48.80
2018-03-06T09:00:43.721Z,49.60
2018-03-06T09:01:43.699Z,49.90
2018-03-06T09:02:43.671Z,48.70
2018-03-06T09:03:43.638Z,52.50
2018-03-06T09:04:43.919Z,48.80
2018-03-06T09:05:43.593Z,49.00
2018-03-06T09:06:43.575Z,50.90
2018-03-06T09:07:43.541Z,50.70
2018-03-06T09:08:43.526Z,49.10
2018-03-06T09:09:43.497Z,51.40
2018-03-06T09:10:43.720Z,50.50
2018-03-06T09:11:43.441Z,50.00
2018-03-06T09:12:43.418Z,51.20
2018-03-06T09:13:43.394Z,49.30
2018-03-06T09:14:43.364Z,51.40
2018-03-06T09:15:43.351Z,50.80
2018-03-06T09:16:43.325Z,50.50
2018-03-06T09:17:43.293Z,52.80
2018-03-06T09:18:43.271Z,50.60
2018-03-06T09:19:43.252Z,49.40
2018-03-06T09:20:43.221Z,49.00
2018-03-06T09:21:43.205Z,50.70
2018-03-06T09:22:43.179Z,51.30
2018-03-06T09:23:43.165Z,53.00
2018-03-06T09:24:43.125Z,53.30
2018-03-06T09:25:43.101Z,51.10
2018-03-06T09:26:43.083Z,52.90
2018-03-06T09:27:43.057Z,53.40
2018-03-06T09:28:43.026Z,52.30
2018-03-06T09:29:42.997Z,51.30
2018-03-06T09:30:43.012Z,50.90
2018-03-06T09:31:42.957Z,52.10
2018-03-06T09:32:42.934Z,50.90
2018-03-06T09:33:42.930Z,50.40
2018-03-06T09:34:42.877Z,50.30
2018-03-06T09:35:42.857Z,49.20
2018-03-06T09:36:42.833Z,50.00
2018-03-06T09:37:42.814Z,51.70
2018-03-06T09:38:42.794Z,50.50
2018-03-06T09:39:42.769Z,50.80
2018-03-06T09:40:42.745Z,52.70
2018-03-06T09:41:42.722Z,50.80
2018-03-06T09:42:42.693Z,53.80
2018-03-06T09:43:42.684Z,52.70
2018-03-06T09:44:42.647Z,52.10
2018-03-06T09:45:42.617Z,52.90
2018-03-06T09:46:42.595Z,50.80
2018-03-06T09:47:42.580Z,49.50
2018-03-06T09:48:42.551Z,51.70
2018-03-06T09:49:42.531Z,51.10
2018-03-06T09:50:42.525Z,52.10
2018-03-06T09:51:42.481Z,51.70
2018-03-06T09:52:42.454Z,50.80
2018-03-06T09:53:42.434Z,52.30
2018-03-06T09:54:42.414Z,51.60
2018-03-06T09:55:42.390Z,52.00
2018-03-06T09:56:42.367Z,51.90
2018-03-06T09:57:42.342Z,52.60
2018-03-06T09:58:42.326Z,53.80
2018-03-06T09:59:42.302Z,54.00
2018-03-06T10:00:42.279Z,52.00
2018-03-06T10:01:42.254Z,50.60
2018-03-06T10:02:42.231Z,53.30
2018-03-06T10:03:42.206Z,52.00
2018-03-06T10:04:42.438Z,52.20
2018-03-06T10:05:42.158Z,51.50
2018-03-06T10:06:42.131Z,52.80
2018-03-06T10:07:42.114Z,51.40
2018-03-06T10:08:42.090Z,50.50
2018-03-06T10:09:42.073Z,50.80
2018-03-06T10:10:42.046Z,50.70
2018-03-06T10:11:42.028Z,49.40
2018-03-06T10:12:42.004Z,51.30
2018-03-06T10:13:41.981Z,51.80
2018-03-06T10:14:41.967Z,51.90
2018-03-06T10:15:41.943Z,51.10
2018-03-06T10:16:41.921Z,52.50
2018-03-06T10:17:41.889Z,50.70
2018-03-06T10:18:41.870Z,51.90
2018-03-06T10:19:41.839Z,51.40
2018-03-06T10:20:41.819Z,52.70
2018-03-06T10:21:41.806Z,51.60
2018-03-06T10:22:41.775Z,53.30
2018-03-06T10:23:41.750Z,53.40
2018-03-06T10:24:41.736Z,51.40
2018-03-06T10:25:41.710Z,50.90
2018-03-06T10:26:41.691Z,52.30
2018-03-06T10:27:41.670Z,53.00
2018-03-06T10:28:41.638Z,53.90
2018-03-06T10:29:41.616Z,52.90
2018-03-06T10:30:41.589Z,51.80
2018-03-06T10:31:41.566Z,56.10
2018-03-06T10:32:41.550Z,53.60
2018-03-06T10:33:41.531Z,55.70
2018-03-06T10:34:41.509Z,56.60
2018-03-06T10:35:41.479Z,51.70
2018-03-06T10:36:41.461Z,53.70
2018-03-06T10:37:41.433Z,52.70
2018-03-06T10:38:41.679Z,52.80
2018-03-06T10:39:41.390Z,55.00
2018-03-06T10:40:41.375Z,56.70
2018-03-06T10:41:41.338Z,55.30
2018-03-06T10:42:41.324Z,54.80
2018-03-06T10:43:41.303Z,55.40
2018-03-06T10:44:41.278Z,55.60
2018-03-06T10:45:41.253Z,55.50
2018-03-06T10:46:41.232Z,57.20
2018-03-06T10:47:41.213Z,56.10
2018-03-06T10:48:41.185Z,54.80
2018-03-06T10:49:41.185Z,55.50
2018-03-06T10:50:41.145Z,54.10
2018-03-06T10:51:41.116Z,52.30
2018-03-06T10:52:41.095Z,51.30
2018-03-06T10:53:41.079Z,53.50
2018-03-06T10:54:41.056Z,55.40
2018-03-06T10:55:41.030Z,50.70
2018-03-06T10:56:41.009Z,52.40
2018-03-06T10:57:40.981Z,50.30
2018-03-06T10:58:40.964Z,48.40
2018-03-06T10:59:40.950Z,53.70
2018-03-06T11:00:40.925Z,53.70
2018-03-06T11:01:40.895Z,50.20
2018-03-06T11:02:40.876Z,52.20
2018-03-06T11:03:40.858Z,54.20
2018-03-06T11:04:40.829Z,51.50
2018-03-06T11:05:40.816Z,52.40
2018-03-06T11:06:40.786Z,52.00
2018-03-06T11:07:40.776Z,52.30
2018-03-06T11:08:40.743Z,53.40
2018-03-06T11:09:40.719Z,55.30
2018-03-06T11:10:40.696Z,54.40
2018-03-06T11:11:40.678Z,52.70
2018-03-06T11:12:40.656Z,52.20
2018-03-06T11:13:40.626Z,54.50
2018-03-06T11:14:40.605Z,53.50
2018-03-06T11:15:40.595Z,53.30
2018-03-06T11:16:40.561Z,51.50
2018-03-06T11:17:40.533Z,52.50
2018-03-06T11:18:40.524Z,54.10
2018-03-06T11:19:40.502Z,53.50
2018-03-06T11:20:40.477Z,56.40
2018-03-06T11:21:40.459Z,55.10
2018-03-06T11:22:40.442Z,55.20
2018-03-06T11:23:40.405Z,55.10
2018-03-06T11:24:40.412Z,53.40
2018-03-06T11:25:40.369Z,50.80
2018-03-06T11:26:40.342Z,52.90
2018-03-06T11:27:40.334Z,54.10
2018-03-06T11:28:40.311Z,54.30
2018-03-06T11:29:40.282Z,52.40
2018-03-06T11:30:40.280Z,51.90
2018-03-06T11:31:40.249Z,53.20
2018-03-06T11:32:40.253Z,52.60
2018-03-06T11:33:40.187Z,51.90
2018-03-06T11:34:40.183Z,53.70
2018-03-06T11:35:40.154Z,53.50
2018-03-06T11:36:40.130Z,48.40
2018-03-06T11:37:40.368Z,50.20
2018-03-06T11:38:40.097Z,50.60
2018-03-06T11:39:40.066Z,48.90
2018-03-06T11:40:40.053Z,50.70
2018-03-06T11:41:40.034Z,53.50
2018-03-06T11:42:40.006Z,50.30
2018-03-06T11:43:39.997Z,50.30
2018-03-06T11:44:40.004Z,52.70
2018-03-06T11:45:39.936Z,50.70
2018-03-06T11:46:39.927Z,52.10
2018-03-06T11:47:39.908Z,49.90
2018-03-06T11:48:39.880Z,50.20
2018-03-06T11:49:40.163Z,51.60
2018-03-06T11:50:39.834Z,51.40
2018-03-06T11:51:39.814Z,53.30
2018-03-06T11:52:39.792Z,50.50
2018-03-06T11:53:39.773Z,52.90
2018-03-06T11:54:39.763Z,47.90
2018-03-06T11:55:39.728Z,50.00
2018-03-06T11:56:39.726Z,48.00
2018-03-06T11:57:39.697Z,49.90
2018-03-06T11:58:39.673Z,51.10
2018-03-06T11:59:39.961Z,50.60
2018-03-06T12:00:39.634Z,47.90
2018-03-06T12:01:39.610Z,47.80
2018-03-06T12:02:39.587Z,51.20
2018-03-06T12:03:39.575Z,53.90
2018-03-06T12:04:39.547Z,49.10
2018-03-06T12:05:39.778Z,47.90
2018-03-06T12:06:39.507Z,48.50
2018-03-06T12:07:39.489Z,47.20
2018-03-06T12:08:39.465Z,48.80
2018-03-06T12:09:39.454Z,47.60
2018-03-06T12:10:39.430Z,47.60
2018-03-06T12:11:39.707Z,49.40
2018-03-06T12:12:39.388Z,49.60
2018-03-06T12:13:39.370Z,48.50
2018-03-06T12:14:39.354Z,48.50
2018-03-06T12:15:39.330Z,48.60
2018-03-06T12:16:39.309Z,50.30
2018-03-06T12:17:39.285Z,48.80
2018-03-06T12:18:39.283Z,48.00
2018-03-06T12:19:39.253Z,49.90
2018-03-06T12:20:39.232Z,48.40
2018-03-06T12:21:39.207Z,48.60
2018-03-06T12:22:39.190Z,49.10
2018-03-06T12:23:39.174Z,49.90
2018-03-06T12:24:39.145Z,50.80
2018-03-06T12:25:39.127Z,50.50
2018-03-06T12:26:39.121Z,49.90
2018-03-06T12:27:39.089Z,49.70
2018-03-06T12:28:39.073Z,52.20
2018-03-06T12:29:39.045Z,49.70
2018-03-06T12:30:39.030Z,49.20
2018-03-06T12:31:39.014Z,49.40
2018-03-06T12:32:38.988Z,49.60
2018-03-06T12:33:38.986Z,47.00
2018-03-06T12:34:38.949Z,49.20
2018-03-06T12:35:39.180Z,50.20
2018-03-06T12:36:38.904Z,49.30
2018-03-06T12:37:38.895Z,48.70
2018-03-06T12:38:38.872Z,49.90
2018-03-06T12:39:38.848Z,47.40
2018-03-06T12:40:38.835Z,47.80
2018-03-06T12:41:38.804Z,48.00
2018-03-06T12:42:38.782Z,48.10
2018-03-06T12:43:38.765Z,47.50
2018-03-06T12:44:38.746Z,48.20
2018-03-06T12:45:38.719Z,48.30
2018-03-06T12:46:38.701Z,47.60
2018-03-06T12:47:38.682Z,47.40
2018-03-06T12:48:38.687Z,45.10
2018-03-06T12:49:38.655Z,47.50
2018-03-06T12:50:38.635Z,46.90
2018-03-06T12:51:38.595Z,47.00